createdAt,value
2022-12-27T00:01:37.267Z,95047.47
2022-12-27T00:04:25.986Z,95049.16
2022-12-27T00:06:59.248Z,95039.06
2022-12-27T00:09:46.094Z,95041.59
2022-12-27T00:12:26.102Z,95038.34
2022-12-27T00:15:20.169Z,95048.44
2022-12-27T00:18:14.159Z,95050.16
2022-12-27T00:21:07.228Z,95042.56
2022-12-27T00:23:44.275Z,95043.41
2022-12-27T00:26:36.170Z,95037.50
2022-12-27T00:29:10.258Z,95043.38
2022-12-27T00:31:57.173Z,95045.06
2022-12-27T00:34:30.305Z,95045.91
2022-12-27T00:37:17.149Z,95043.31
2022-12-27T00:39:50.247Z,95052.59
2022-12-27T00:42:37.134Z,95055.09
2022-12-27T00:45:18.112Z,95052.59
2022-12-27T00:48:05.156Z,95059.31
2022-12-27T00:50:38.258Z,95064.38
2022-12-27T00:53:25.154Z,95060.19
2022-12-27T00:56:05.177Z,95060.16
2022-12-27T00:58:52.294Z,95054.31
2022-12-27T01:01:27.473Z,95049.22
2022-12-27T01:04:14.277Z,95044.13
2022-12-27T01:06:48.288Z,95051.72
2022-12-27T01:09:35.171Z,95047.47
2022-12-27T01:12:15.152Z,95036.53
2022-12-27T01:15:02.178Z,95040.69
2022-12-27T01:17:43.221Z,95049.97
2022-12-27T01:20:30.227Z,95028.03
2022-12-27T01:23:10.174Z,95028.88
2022-12-27T01:26:06.166Z,95032.25
2022-12-27T01:28:40.299Z,95030.59
2022-12-27T01:31:32.190Z,95027.22
2022-12-27T01:34:14.165Z,95002.75
2022-12-27T01:37:10.014Z,94998.53
2022-12-27T01:39:57.319Z,95006.09
2022-12-27T01:42:55.132Z,95006.06
2022-12-27T01:45:43.192Z,95011.91
2022-12-27T01:48:24.355Z,95011.06
2022-12-27T01:51:13.324Z,94992.50
2022-12-27T01:53:59.180Z,94998.41
2022-12-27T01:56:53.239Z,95014.41
2022-12-27T01:59:42.200Z,95011.03
2022-12-27T02:02:22.376Z,95006.81
2022-12-27T02:05:17.206Z,95008.44
2022-12-27T02:08:25.190Z,95010.97
2022-12-27T02:11:00.285Z,95008.47
2022-12-27T02:13:50.165Z,95013.50
2022-12-27T02:16:34.258Z,95010.16
2022-12-27T02:19:37.247Z,95005.97
2022-12-27T02:23:28.216Z,95009.31
2022-12-27T02:26:18.206Z,95002.59
2022-12-27T02:29:09.344Z,95000.06
2022-12-27T02:32:30.183Z,94995.81
2022-12-27T02:35:14.259Z,94994.97
2022-12-27T02:38:26.214Z,94984.84
2022-12-27T02:41:26.229Z,94980.63
2022-12-27T02:44:32.216Z,94979.81
2022-12-27T02:47:25.221Z,94967.19
2022-12-27T02:50:34.173Z,94961.31
2022-12-27T02:53:27.219Z,94973.94
2022-12-27T02:57:04.211Z,94963.00
2022-12-27T03:00:29.251Z,94954.59
2022-12-27T03:03:42.589Z,94967.22
2022-12-27T03:06:47.224Z,94958.78
2022-12-27T03:10:02.230Z,94961.31
2022-12-27T03:13:00.811Z,94964.69
2022-12-27T03:16:02.279Z,94970.53
2022-12-27T03:18:42.709Z,94976.47
2022-12-27T03:22:02.195Z,94987.41
2022-12-27T03:25:04.172Z,94986.56
2022-12-27T03:28:15.228Z,94986.59
2022-12-27T03:31:10.827Z,94992.50
2022-12-27T03:34:11.190Z,94984.88
2022-12-27T03:37:11.264Z,94980.69
2022-12-27T03:40:17.181Z,94988.25
2022-12-27T03:43:19.233Z,94987.44
2022-12-27T03:46:43.223Z,94977.31
2022-12-27T03:49:35.270Z,94961.34
2022-12-27T03:52:22.336Z,94981.50
2022-12-27T03:55:10.231Z,94982.38
2022-12-27T03:57:44.273Z,94978.97
2022-12-27T04:00:31.251Z,94989.97
2022-12-27T04:03:04.294Z,94983.19
2022-12-27T04:06:06.169Z,94977.31
2022-12-27T04:09:18.228Z,94976.47
2022-12-27T04:12:30.231Z,94988.25
2022-12-27T04:15:36.311Z,94994.13
2022-12-27T04:18:27.797Z,94997.50
2022-12-27T04:21:32.207Z,94999.19
2022-12-27T04:24:30.198Z,94995.81
2022-12-27T04:27:35.228Z,94997.50
2022-12-27T04:30:34.191Z,95002.56
2022-12-27T04:33:46.215Z,94996.66
2022-12-27T04:36:33.243Z,94997.50
2022-12-27T04:39:13.234Z,95000.84
2022-12-27T04:42:18.202Z,95001.66
2022-12-27T04:45:15.215Z,95009.25
2022-12-27T04:48:20.201Z,95010.06
2022-12-27T04:51:18.203Z,95019.31
2022-12-27T04:54:30.206Z,95016.78
2022-12-27T04:57:17.231Z,95014.25
2022-12-27T05:00:26.224Z,95004.97
2022-12-27T05:03:24.281Z,95003.22
2022-12-27T05:06:18.229Z,95009.97
2022-12-27T05:09:33.228Z,95004.09
2022-12-27T05:12:45.226Z,95006.63
2022-12-27T05:15:39.244Z,95019.22
2022-12-27T05:18:26.244Z,95017.53
2022-12-27T05:21:06.236Z,95013.31
2022-12-27T05:24:18.195Z,95016.72
2022-12-27T05:27:12.241Z,95025.13
2022-12-27T05:30:06.210Z,95015.84
2022-12-27T05:32:53.233Z,95015.00
2022-12-27T05:35:26.309Z,95013.31
2022-12-27T05:38:13.251Z,95018.34
2022-12-27T05:40:46.318Z,95021.72
2022-12-27T05:43:34.216Z,95033.47
2022-12-27T05:46:18.341Z,95025.88
2022-12-27T05:49:05.236Z,95033.41
2022-12-27T05:51:45.262Z,95034.25
2022-12-27T05:54:32.229Z,95042.66
2022-12-27T05:57:12.193Z,95033.38
2022-12-27T06:00:06.236Z,95056.94
2022-12-27T06:02:53.354Z,95070.38
2022-12-27T06:05:26.329Z,95062.72
2022-12-27T06:08:13.238Z,95066.94
2022-12-27T06:10:53.231Z,95072.00
2022-12-27T06:13:40.268Z,95077.84
2022-12-27T06:16:15.346Z,95076.97
2022-12-27T06:19:02.237Z,95077.75
2022-12-27T06:21:35.335Z,95076.88
2022-12-27T06:24:23.241Z,95079.34
2022-12-27T06:26:56.390Z,95085.19
2022-12-27T06:29:43.236Z,95083.44
2022-12-27T06:32:24.242Z,95085.09
2022-12-27T06:35:18.238Z,95083.38
2022-12-27T06:38:05.265Z,95085.00
2022-12-27T06:40:38.338Z,95081.59
2022-12-27T06:43:25.248Z,95090.81
2022-12-27T06:46:17.625Z,95105.09
2022-12-27T06:49:12.218Z,95115.13
2022-12-27T06:51:59.867Z,95121.91
2022-12-27T06:54:40.243Z,95140.44
2022-12-27T06:57:27.215Z,95149.72
2022-12-27T07:00:07.254Z,95169.16
2022-12-27T07:03:01.331Z,95185.19
2022-12-27T07:05:55.241Z,95227.31
2022-12-27T07:08:43.252Z,95240.88
2022-12-27T07:11:25.272Z,95247.78
2022-12-27T07:14:23.240Z,95248.81
2022-12-27T07:17:10.268Z,95248.09
2022-12-27T07:19:43.342Z,95255.84
2022-12-27T07:22:30.265Z,95254.34
2022-12-27T07:25:03.372Z,95252.78
2022-12-27T07:27:50.253Z,95252.91
2022-12-27T07:30:23.465Z,95238.69
2022-12-27T07:33:10.243Z,95244.69
2022-12-27T07:35:45.264Z,95244.81
2022-12-27T07:38:32.256Z,95249.13
2022-12-27T07:41:07.376Z,95237.41
2022-12-27T07:43:54.284Z,95250.13
2022-12-27T07:46:30.389Z,95257.75
2022-12-27T07:49:18.308Z,95276.41
2022-12-27T07:51:51.375Z,95290.78
2022-12-27T07:54:38.254Z,95303.50
2022-12-27T07:57:11.384Z,95303.59
2022-12-27T07:59:58.269Z,95303.63
2022-12-27T08:02:31.429Z,95323.84
2022-12-27T08:05:20.396Z,95310.38
2022-12-27T08:08:08.291Z,95312.94
2022-12-27T08:10:58.256Z,95340.75
2022-12-27T08:13:40.252Z,95364.34
2022-12-27T08:16:36.310Z,95366.72
2022-12-27T08:19:23.295Z,95391.00
2022-12-27T08:21:56.406Z,95406.00
2022-12-27T08:24:45.296Z,95415.00
2022-12-27T08:27:19.388Z,95420.75
2022-12-27T08:30:06.282Z,95441.72
2022-12-27T08:32:39.368Z,95439.91
2022-12-27T08:35:51.534Z,95438.06
2022-12-27T08:38:19.380Z,95437.97
2022-12-27T08:41:06.290Z,95442.19
2022-12-27T08:43:39.374Z,95442.06
2022-12-27T08:46:26.317Z,95447.03
2022-12-27T08:48:59.391Z,95458.59
2022-12-27T08:51:46.291Z,95453.44
2022-12-27T08:54:19.430Z,95450.75
2022-12-27T08:57:06.288Z,95464.13
2022-12-27T08:59:46.284Z,95458.97
2022-12-27T09:02:40.392Z,95460.53
2022-12-27T09:05:28.234Z,95459.56
2022-12-27T09:08:08.309Z,95474.69
2022-12-27T09:11:02.276Z,95503.34
2022-12-27T09:13:56.310Z,95486.41
2022-12-27T09:16:50.280Z,95481.38
2022-12-27T09:19:38.313Z,95483.84
2022-12-27T09:22:18.306Z,95480.44
2022-12-27T09:25:12.308Z,95509.09
2022-12-27T09:27:59.305Z,95516.66
2022-12-27T09:30:32.428Z,95524.34
2022-12-27T09:33:19.307Z,95536.94
2022-12-27T09:35:52.451Z,95523.50
2022-12-27T09:38:39.310Z,95521.91
2022-12-27T09:41:59.053Z,95529.56
2022-12-27T09:44:42.302Z,95517.84
2022-12-27T09:47:22.412Z,95517.91
2022-12-27T09:50:13.322Z,95512.06
2022-12-27T09:52:46.441Z,95509.56
2022-12-27T09:55:50.320Z,95524.72
2022-12-27T09:58:38.457Z,95525.63
2022-12-27T10:01:43.432Z,95528.16
2022-12-27T10:04:22.634Z,95536.63
2022-12-27T10:07:21.316Z,95524.84
2022-12-27T10:10:33.420Z,95534.19
2022-12-27T10:13:20.327Z,95535.91
2022-12-27T10:16:15.444Z,95550.28
2022-12-27T10:19:30.372Z,95561.22
2022-12-27T10:22:14.419Z,95566.31
2022-12-27T10:25:05.346Z,95553.63
2022-12-27T10:27:38.425Z,95564.66
2022-12-27T10:30:31.305Z,95584.13
2022-12-27T10:33:11.316Z,95581.72
2022-12-27T10:36:05.331Z,95582.63
2022-12-27T10:38:52.345Z,95592.75
2022-12-27T10:41:40.485Z,95587.69
2022-12-27T10:44:30.337Z,95591.88
2022-12-27T10:47:03.457Z,95597.69
2022-12-27T10:50:18.317Z,95584.13
2022-12-27T10:52:57.171Z,95598.16
2022-12-27T10:55:45.336Z,95602.31
2022-12-27T10:58:56.485Z,95604.72
2022-12-27T11:01:52.387Z,95608.94
2022-12-27T11:04:39.349Z,95602.22
2022-12-27T11:07:12.424Z,95594.66
2022-12-27T11:10:13.349Z,95600.53
2022-12-27T11:13:08.350Z,95600.56
2022-12-27T11:16:09.399Z,95605.63
2022-12-27T11:18:59.355Z,95596.41
2022-12-27T11:21:35.425Z,95608.16
2022-12-27T11:24:24.352Z,95610.69
2022-12-27T11:26:59.470Z,95618.16
2022-12-27T11:29:51.352Z,95618.09
2022-12-27T11:32:33.388Z,95602.09
2022-12-27T11:35:36.343Z,95604.53
2022-12-27T11:38:31.361Z,95610.31
2022-12-27T11:41:21.953Z,95608.50
2022-12-27T11:44:49.351Z,95620.25
2022-12-27T11:47:50.441Z,95613.41
2022-12-27T11:50:53.363Z,95610.84
2022-12-27T11:53:39.376Z,95609.91
2022-12-27T11:56:57.389Z,95613.31
2022-12-27T12:00:03.352Z,95624.22
2022-12-27T12:03:01.459Z,95620.00
2022-12-27T12:05:57.366Z,95619.09
2022-12-27T12:09:11.373Z,95625.00
2022-12-27T12:12:16.356Z,95633.41
2022-12-27T12:15:15.366Z,95635.88
2022-12-27T12:18:02.369Z,95633.31
2022-12-27T12:20:50.952Z,95639.97
2022-12-27T12:24:30.409Z,95643.22
2022-12-27T12:27:24.365Z,95641.47
2022-12-27T12:30:11.433Z,95639.72
2022-12-27T12:32:56.467Z,95635.59
2022-12-27T12:36:20.381Z,95635.59
2022-12-27T12:39:08.463Z,95636.44
2022-12-27T12:42:19.383Z,95636.44
2022-12-27T12:45:31.520Z,95636.31
2022-12-27T12:48:54.382Z,95633.75
2022-12-27T12:51:57.494Z,95636.19
2022-12-27T12:54:59.389Z,95641.19
2022-12-27T12:57:58.406Z,95640.41
2022-12-27T13:01:16.499Z,95640.47
2022-12-27T13:04:20.359Z,95643.09
2022-12-27T13:07:39.556Z,95650.84
2022-12-27T13:10:57.372Z,95642.38
2022-12-27T13:14:05.391Z,95643.28
2022-12-27T13:17:24.403Z,95648.44
2022-12-27T13:20:20.386Z,95651.00
2022-12-27T13:23:01.593Z,95640.13
2022-12-27T13:26:00.397Z,95640.19
2022-12-27T13:28:52.478Z,95637.59
2022-12-27T13:31:58.391Z,95638.50
2022-12-27T13:34:57.389Z,95633.50
2022-12-27T13:37:59.382Z,95632.63
2022-12-27T13:41:09.538Z,95636.03
2022-12-27T13:44:23.383Z,95652.88
2022-12-27T13:47:25.426Z,95652.81
2022-12-27T13:50:18.391Z,95654.47
2022-12-27T13:53:30.567Z,95653.66
2022-12-27T13:56:55.838Z,95663.69
2022-12-27T13:59:53.399Z,95666.97
2022-12-27T14:02:55.490Z,95677.03
2022-12-27T14:06:04.420Z,95681.22
2022-12-27T14:09:29.477Z,95679.50
2022-12-27T14:12:34.447Z,95675.19
2022-12-27T14:15:51.432Z,95668.44
2022-12-27T14:19:15.476Z,95665.88
2022-12-27T14:21:54.531Z,95671.72
2022-12-27T14:24:59.399Z,95665.75
2022-12-27T14:28:07.501Z,95674.97
2022-12-27T14:31:12.529Z,95679.09
2022-12-27T14:34:11.412Z,95687.50
2022-12-27T14:37:26.395Z,95696.69
2022-12-27T14:40:09.407Z,95702.56
2022-12-27T14:43:18.457Z,95695.81
2022-12-27T14:46:44.555Z,95713.44
2022-12-27T14:49:46.408Z,95720.19
2022-12-27T14:53:10.471Z,95719.34
2022-12-27T14:55:58.411Z,95715.09
2022-12-27T14:59:10.417Z,95710.88
2022-12-27T15:02:09.584Z,95712.53
2022-12-27T15:05:13.479Z,95727.69
2022-12-27T15:08:04.596Z,95725.97
2022-12-27T15:10:57.443Z,95736.81
2022-12-27T15:14:07.675Z,95735.13
2022-12-27T15:17:39.459Z,95729.19
2022-12-27T15:20:15.558Z,95738.44
2022-12-27T15:23:51.437Z,95757.81
2022-12-27T15:26:50.435Z,95756.94
2022-12-27T15:29:40.413Z,95761.91
2022-12-27T15:32:40.433Z,95759.41
2022-12-27T15:35:36.456Z,95756.06
2022-12-27T15:38:53.601Z,95761.97
2022-12-27T15:41:45.602Z,95762.81
2022-12-27T15:44:46.431Z,95771.25
2022-12-27T15:47:32.439Z,95768.66
2022-12-27T15:50:26.442Z,95760.22
2022-12-27T15:53:34.442Z,95767.81
2022-12-27T15:56:17.427Z,95777.91
2022-12-27T15:59:48.532Z,95775.38
2022-12-27T16:02:42.610Z,95782.94
2022-12-27T16:05:38.552Z,95776.16
2022-12-27T16:08:33.435Z,95777.81
2022-12-27T16:11:15.453Z,95774.47
2022-12-27T16:14:36.441Z,95771.09
2022-12-27T16:18:00.471Z,95780.41
2022-12-27T16:20:54.460Z,95767.75
2022-12-27T16:23:55.465Z,95771.06
2022-12-27T16:26:37.562Z,95762.63
2022-12-27T16:29:24.461Z,95769.41
2022-12-27T16:31:58.613Z,95777.78
2022-12-27T16:34:46.514Z,95777.81
2022-12-27T16:37:51.788Z,95784.56
2022-12-27T16:41:02.449Z,95789.66
2022-12-27T16:43:58.471Z,95790.56
2022-12-27T16:47:36.467Z,95788.09
2022-12-27T16:50:26.609Z,95794.00
2022-12-27T16:53:18.662Z,95791.47
2022-12-27T16:56:25.514Z,95790.63
2022-12-27T16:58:58.622Z,95798.22
2022-12-27T17:01:51.566Z,95804.97
2022-12-27T17:04:56.594Z,95802.47
2022-12-27T17:08:06.639Z,95805.84
2022-12-27T17:10:56.573Z,95800.00
2022-12-27T17:13:34.810Z,95810.94
2022-12-27T17:16:29.716Z,95802.59
2022-12-27T17:19:15.467Z,95791.66
2022-12-27T17:22:07.772Z,95786.56
2022-12-27T17:24:48.720Z,95795.03
2022-12-27T17:27:47.701Z,95791.66
2022-12-27T17:30:46.764Z,95792.53
2022-12-27T17:34:05.717Z,95796.72
2022-12-27T17:36:58.762Z,95799.22
2022-12-27T17:40:05.769Z,95800.97
2022-12-27T17:43:20.789Z,95807.66
2022-12-27T17:46:16.842Z,95798.38
2022-12-27T17:49:11.670Z,95794.13
2022-12-27T17:52:16.685Z,95806.72
2022-12-27T17:55:09.645Z,95799.16
2022-12-27T17:58:01.673Z,95810.09
2022-12-27T18:01:08.632Z,95812.63
2022-12-27T18:04:02.730Z,95812.63
2022-12-27T18:06:56.567Z,95810.09
2022-12-27T18:09:57.520Z,95804.22
2022-12-27T18:12:34.632Z,95808.44
2022-12-27T18:15:25.536Z,95808.44
2022-12-27T18:18:01.606Z,95815.16
2022-12-27T18:20:48.515Z,95819.34
2022-12-27T18:23:31.508Z,95818.53
2022-12-27T18:26:20.502Z,95813.47
2022-12-27T18:28:54.592Z,95815.16
2022-12-27T18:31:53.527Z,95820.25
2022-12-27T18:34:33.600Z,95813.47
2022-12-27T18:37:25.528Z,95821.03
2022-12-27T18:40:04.929Z,95824.34
2022-12-27T18:42:55.673Z,95830.28
2022-12-27T18:45:34.296Z,95826.88
2022-12-27T18:48:25.115Z,95817.66
2022-12-27T18:51:07.937Z,95827.75
2022-12-27T18:54:01.977Z,95825.25
2022-12-27T18:56:49.905Z,95829.44
2022-12-27T18:59:38.525Z,95831.06
2022-12-27T19:02:51.556Z,95829.38
2022-12-27T19:05:34.565Z,95818.44
2022-12-27T19:08:34.651Z,95816.78
2022-12-27T19:11:39.498Z,95823.50
2022-12-27T19:14:28.530Z,95831.13
2022-12-27T19:17:10.659Z,95835.34
2022-12-27T19:20:04.533Z,95847.94
2022-12-27T19:22:47.637Z,95851.31
2022-12-27T19:25:52.521Z,95848.00
2022-12-27T19:28:40.685Z,95852.22
2022-12-27T19:31:22.765Z,95858.13
2022-12-27T19:34:14.532Z,95854.72
2022-12-27T19:36:50.656Z,95853.84
2022-12-27T19:39:42.593Z,95860.50
2022-12-27T19:42:23.626Z,95859.66
2022-12-27T19:45:10.546Z,95864.69
2022-12-27T19:47:43.651Z,95867.16
2022-12-27T19:50:30.535Z,95873.03
2022-12-27T19:53:11.560Z,95879.75
2022-12-27T19:55:58.517Z,95879.75
2022-12-27T19:58:33.638Z,95883.06
2022-12-27T20:01:20.738Z,95890.63
2022-12-27T20:04:00.674Z,95891.53
2022-12-27T20:06:54.719Z,95889.84
2022-12-27T20:09:49.403Z,95888.94
2022-12-27T20:12:43.640Z,95885.56
2022-12-27T20:15:31.598Z,95883.84
2022-12-27T20:18:11.620Z,95878.78
2022-12-27T20:20:59.634Z,95885.50
2022-12-27T20:23:39.684Z,95881.28
2022-12-27T20:26:36.838Z,95882.03
2022-12-27T20:29:23.766Z,95879.50
2022-12-27T20:32:03.550Z,95882.00
2022-12-27T20:34:57.684Z,95895.47
2022-12-27T20:37:44.820Z,95884.47
2022-12-27T20:40:25.707Z,95887.00
2022-12-27T20:43:12.543Z,95895.34
2022-12-27T20:45:45.792Z,95899.53
2022-12-27T20:48:32.531Z,95897.84
2022-12-27T20:51:11.795Z,95898.63
2022-12-27T20:54:09.537Z,95911.25
2022-12-27T20:56:49.584Z,95913.75
2022-12-27T20:59:43.586Z,95906.97
2022-12-27T21:02:30.807Z,95906.13
2022-12-27T21:05:04.793Z,95906.06
2022-12-27T21:07:58.548Z,95903.59
2022-12-27T21:10:52.802Z,95902.69
2022-12-27T21:13:41.784Z,95913.63
2022-12-27T21:16:34.868Z,95916.16
2022-12-27T21:19:21.542Z,95916.13
2022-12-27T21:22:01.577Z,95920.34
2022-12-27T21:24:55.559Z,95915.31
2022-12-27T21:27:42.533Z,95924.59
2022-12-27T21:30:23.560Z,95919.50
2022-12-27T21:33:17.601Z,95917.75
2022-12-27T21:36:06.670Z,95921.88
2022-12-27T21:38:47.560Z,95926.88
2022-12-27T21:41:39.571Z,95920.06
2022-12-27T21:44:20.578Z,95915.72
2022-12-27T21:47:14.546Z,95900.44
2022-12-27T21:50:01.574Z,95903.72
2022-12-27T21:52:34.699Z,95901.94
2022-12-27T21:55:21.574Z,95898.50
2022-12-27T21:57:54.679Z,95903.53
2022-12-27T22:00:41.590Z,95899.25
2022-12-27T22:03:21.707Z,95899.19
2022-12-27T22:06:22.559Z,95896.56
2022-12-27T22:09:05.580Z,95889.78
2022-12-27T22:11:52.628Z,95892.25
2022-12-27T22:14:36.816Z,95893.03
2022-12-27T22:17:23.596Z,95890.50
2022-12-27T22:19:56.647Z,95892.16
2022-12-27T22:22:43.637Z,95890.38
2022-12-27T22:25:26.590Z,95895.38
2022-12-27T22:28:13.580Z,95896.16
2022-12-27T22:30:54.734Z,95886.78
2022-12-27T22:33:42.601Z,95898.38
2022-12-27T22:36:19.739Z,95892.34
2022-12-27T22:39:07.587Z,95903.22
2022-12-27T22:41:51.753Z,95907.38
2022-12-27T22:44:45.582Z,95907.31
2022-12-27T22:47:32.663Z,95903.88
2022-12-27T22:50:05.788Z,95900.56
2022-12-27T22:52:53.561Z,95894.66
2022-12-27T22:55:33.603Z,95903.88
2022-12-27T22:58:20.595Z,95903.81
2022-12-27T23:00:53.708Z,95910.47
2022-12-27T23:03:40.681Z,95923.13
2022-12-27T23:06:14.732Z,95913.88
2022-12-27T23:09:08.602Z,95913.00
2022-12-27T23:11:55.582Z,95913.06
2022-12-27T23:14:35.598Z,95917.31
2022-12-27T23:17:22.609Z,95914.03
2022-12-27T23:20:02.593Z,95913.19
2022-12-27T23:22:56.583Z,95913.16
2022-12-27T23:25:43.627Z,95921.59
2022-12-27T23:28:16.710Z,95919.84
2022-12-27T23:31:03.620Z,95913.16
2022-12-27T23:33:36.785Z,95918.16
2022-12-27T23:36:23.616Z,95920.69
2022-12-27T23:39:04.614Z,95918.19
2022-12-27T23:41:51.610Z,95911.50
2022-12-27T23:44:33.067Z,95905.66
2022-12-27T23:47:14.602Z,95918.31
2022-12-27T23:50:01.598Z,95908.22
2022-12-27T23:52:48.607Z,95914.19
2022-12-27T23:55:28.624Z,95903.28
2022-12-27T23:58:23.626Z,95895.72
